Chenois Creek, Washington
Current Conditions -  °F | °C
As of 4:25 PM on Wednesday 22 Oct 2014 (Local Time) from KHQM Reporting Station
Light Rain Light Rain  
Wind Chill: 14°   Ceiling: 1300
Heat Index: 14°   Visibility: 2mi
Dew Point: 13°   Wind: 15mph
Humidity: 90%   Direction: 140°SE
Pressure: 29.57"   Gusts: NA
Location:  47.0202°N, 123.878°W
Report Text: KHQM 222325Z AUTO 14013KT 2SM -RA BR BKN013 BKN021 OVC029 14/13 A2957 RMK AO2 P0005 T01440128
Loading
Personal Weather Stations






























Interactive Weather Map
Tropical Storm Tracking
New forecast layout! Learn more

10-Day Weather Forecast

Advertisements
Track Severe Weather on mobile